Share

Zapata, TX

Zapata (KAPY) Elev 423 ft | 26.97 °N, 99.25 °W | Change Station

Current weather conditions updated 55 minutes ago

Overcast
Overcast
79 °F
Feels Like 79 °F
N
15
Wind Variable Wind from SE
Gusts 22 mph
Sunrise 7:08 AM
Sunset 8:03 PM
Moon Waning Gibbous

Tomorrow is forecast to be Much Warmer than today. Scattered thunderstorms possible tomorrow night.

Pressure 30.02 in
Visibility 10.0 miles
Clouds Overcast 2400 ft
Dew Point 66 °F
Humidity 63%
Rainfall 0.00 in
Snow Depth Not available.
UV 3 out of 16
Pollen 9.30 out of 12
Air Quality Not available.
Flu Activity Local Activity
METAR KAPY 202015Z AUTO 14013G19KT 10SM OVC024 26/18 A3002 RMK AO2 T02620186

More Conditions Fewer Conditions

Pressure 30.02 in
Visibility 10.0 miles
Clouds Overcast 2400 ft
Dew Point 66 °F
Humidity 63%
Rainfall 0.00 in
Snow Depth Not available.
UV 3 out of 16
Pollen 9.30 out of 12
Air Quality Not available.
Flu Activity Local Activity
METAR KAPY 202015Z AUTO 14013G19KT 10SM OVC024 26/18 A3002 RMK AO2 T02620186

More Conditions Fewer Conditions

10-Day Weather Forecast

Almanac

Astronomy

Apr. 20, 2014 Rise Set
Actual Time 7:08 AM CDT 8:03 PM CDT
Civil Twilight 6:44 AM CDT 8:27 PM CDT
Nautical Twilight 6:16 AM CDT 8:56 PM CDT
Astronomical Twilight 5:47 AM CDT 9:25 PM CDT
Moon 12:34 AM CDT 11:40 AM CDT
Length of Visible Light 13h 43m
Length of Day
12h 55m
Tomorrow will be 1m 29s longer.
Waning Gibbous, 66% of the Moon is Illuminated
Today
Waning Gibbous
Apr 22
Last Quarter
Apr 29
New
May 6
First Quarter
May 14
Full

Today's Extremes

State Highs State Lows

Community

  • Morning Sun
    Morning Sun
  • after rain
    after rain
  • Columbine
    Columbine
  • Easter Sunrise
    Easter Sunrise
  • Easter Eve - The Promise - Lake Palestine, TX
    Easter Eve - The Promise - Lake Palestine, TX

WunderPhotos

Upload Photos

1,703,360 photos uploaded!

WunderBlogs® & News

Nearby

Snow Depth

Station Depth Elevation
No new snow has been reported.

Coastal Water Temperatures

Place Temperature
No Stations Reporting

Earthquake Activity

City Distance Mag. Time & Date
No recent earthquake activity has been reported nearby.
Minimum magnitude displayed is 2.5.

Nearby Weather Stations

Station Location Temp. Heat Index Dew Point Humidity Wind Precip. Elev Updated Type
RAWS FALCON LAKE TX, Falcon Heights, TX 79 °F 82 °F 71 °F 77% ESE  at  9 mph 0.00 in / hr 219 ft 3:11 PM CDT MADIS

Show More Stations Show Fewer Stations

What do you think?

We're not finished. Please let us know what you like, what you don't like, and what you are still missing.